createdAt,value
2019-04-06T00:01:14.079Z,94585.75
2019-04-06T00:04:01.432Z,94589.86
2019-04-06T00:06:49.199Z,94596.64
2019-04-06T00:09:36.931Z,94590.39
2019-04-06T00:12:24.508Z,94593.48
2019-04-06T00:15:12.117Z,94598.48
2019-04-06T00:17:59.466Z,94599.17
2019-04-06T00:20:46.701Z,94595.34
2019-04-06T00:23:34.496Z,94592.62
2019-04-06T00:26:22.393Z,94602.20
2019-04-06T00:29:09.883Z,94604.11
2019-04-06T00:32:02.163Z,94601.03
2019-04-06T00:34:49.817Z,94595.41
2019-04-06T00:37:37.204Z,94602.61
2019-04-06T00:40:24.958Z,94595.56
2019-04-06T00:43:12.910Z,94591.03
2019-04-06T00:45:59.989Z,94589.93
2019-04-06T00:48:47.521Z,94591.09
2019-04-06T00:51:34.944Z,94590.26
2019-04-06T00:54:22.769Z,94587.90
2019-04-06T00:57:10.242Z,94595.94
2019-04-06T00:59:57.797Z,94597.19
2019-04-06T01:02:45.369Z,94590.30
2019-04-06T01:05:33.018Z,94595.29
2019-04-06T01:08:20.606Z,94591.92
2019-04-06T01:11:07.918Z,94594.35
2019-04-06T01:13:55.604Z,94591.75
2019-04-06T01:16:43.119Z,94591.41
2019-04-06T01:19:31.047Z,94588.17
2019-04-06T01:22:18.867Z,94590.58
2019-04-06T01:25:06.727Z,94594.97
2019-04-06T01:27:54.456Z,94595.45
2019-04-06T01:30:42.271Z,94593.02
2019-04-06T01:33:29.918Z,94594.61
2019-04-06T01:36:17.311Z,94596.65
2019-04-06T01:39:06.534Z,94594.05
2019-04-06T01:41:53.752Z,94591.91
2019-04-06T01:44:41.209Z,94592.61
2019-04-06T01:47:28.846Z,94586.89
2019-04-06T01:50:15.940Z,94589.20
2019-04-06T01:53:03.499Z,94572.16
2019-04-06T01:55:51.464Z,94575.01
2019-04-06T01:58:38.782Z,94574.47
2019-04-06T02:01:30.523Z,94582.92
2019-04-06T02:04:18.286Z,94580.98
2019-04-06T02:07:06.119Z,94574.92
2019-04-06T02:09:53.938Z,94568.55
2019-04-06T02:12:41.346Z,94574.17
2019-04-06T02:15:29.139Z,94581.27
2019-04-06T02:18:17.346Z,94578.81
2019-04-06T02:21:04.772Z,94577.28
2019-04-06T02:23:52.173Z,94577.25
2019-04-06T02:26:39.606Z,94573.14
2019-04-06T02:29:27.068Z,94575.55
2019-04-06T02:32:39.748Z,94573.30
2019-04-06T02:35:37.378Z,94577.84
2019-04-06T02:38:44.218Z,94579.08
2019-04-06T02:42:03.060Z,94574.65
2019-04-06T02:44:50.730Z,94572.41
2019-04-06T02:47:38.280Z,94569.30
2019-04-06T02:50:25.622Z,94571.16
2019-04-06T02:53:13.411Z,94570.95
2019-04-06T02:56:01.116Z,94577.58
2019-04-06T02:58:48.610Z,94578.33
2019-04-06T03:01:36.103Z,94578.84
2019-04-06T03:04:23.525Z,94574.09
2019-04-06T03:07:11.344Z,94579.45
2019-04-06T03:09:58.874Z,94571.56
2019-04-06T03:12:46.762Z,94576.32
2019-04-06T03:15:34.114Z,94572.66
2019-04-06T03:18:21.437Z,94576.78
2019-04-06T03:21:08.830Z,94575.45
2019-04-06T03:23:56.455Z,94570.00
2019-04-06T03:26:44.038Z,94568.30
2019-04-06T03:29:31.857Z,94572.91
2019-04-06T03:32:19.324Z,94572.55
2019-04-06T03:35:07.691Z,94569.50
2019-04-06T03:37:55.433Z,94574.73
2019-04-06T03:40:42.644Z,94574.34
2019-04-06T03:43:30.460Z,94569.81
2019-04-06T03:46:17.811Z,94572.91
2019-04-06T03:49:05.340Z,94577.77
2019-04-06T03:51:52.833Z,94586.14
2019-04-06T03:54:40.245Z,94568.30
2019-04-06T03:57:27.616Z,94580.33
2019-04-06T04:00:16.329Z,94582.20
2019-04-06T04:03:03.692Z,94579.77
2019-04-06T04:05:51.186Z,94582.09
2019-04-06T04:08:38.636Z,94579.34
2019-04-06T04:11:26.098Z,94575.69
2019-04-06T04:14:13.587Z,94575.34
2019-04-06T04:17:00.931Z,94566.83
2019-04-06T04:19:48.539Z,94566.33
2019-04-06T04:22:35.881Z,94558.98
2019-04-06T04:25:23.363Z,94563.06
2019-04-06T04:28:10.999Z,94563.55
2019-04-06T04:30:58.565Z,94556.03
2019-04-06T04:33:45.946Z,94559.06
2019-04-06T04:36:33.631Z,94559.05
2019-04-06T04:39:21.157Z,94552.09
2019-04-06T04:42:08.844Z,94560.63
2019-04-06T04:44:56.643Z,94561.38
2019-04-06T04:47:44.296Z,94559.20
2019-04-06T04:50:31.787Z,94561.73
2019-04-06T04:53:19.187Z,94560.70
2019-04-06T04:56:07.154Z,94562.08
2019-04-06T04:58:54.690Z,94567.50
2019-04-06T05:01:42.225Z,94553.84
2019-04-06T05:04:30.018Z,94553.60
2019-04-06T05:07:17.640Z,94554.97
2019-04-06T05:10:05.863Z,94557.64
2019-04-06T05:12:53.640Z,94556.52
2019-04-06T05:16:09.744Z,94556.27
2019-04-06T05:18:57.407Z,94561.22
2019-04-06T05:21:45.133Z,94561.52
2019-04-06T05:24:32.740Z,94562.25
2019-04-06T05:27:20.732Z,94561.74
2019-04-06T05:30:09.410Z,94564.45
2019-04-06T05:32:56.902Z,94564.77
2019-04-06T05:35:44.603Z,94561.05
2019-04-06T05:38:32.043Z,94566.12
2019-04-06T05:41:19.622Z,94562.88
2019-04-06T05:44:07.161Z,94564.78
2019-04-06T05:46:54.598Z,94570.12
2019-04-06T05:49:42.296Z,94573.59
2019-04-06T05:52:29.638Z,94567.55
2019-04-06T05:55:17.310Z,94565.66
2019-04-06T05:58:09.673Z,94569.42
2019-04-06T06:00:54.269Z,94568.56
2019-04-06T06:03:41.778Z,94568.27
2019-04-06T06:06:29.560Z,94565.47
2019-04-06T06:09:17.298Z,94561.92
2019-04-06T06:12:05.032Z,94567.11
2019-04-06T06:14:52.522Z,94563.97
2019-04-06T06:17:40.169Z,94560.41
2019-04-06T06:20:27.199Z,94558.00
2019-04-06T06:23:14.557Z,94559.84
2019-04-06T06:26:02.548Z,94555.84
2019-04-06T06:28:50.449Z,94554.27
2019-04-06T06:31:38.016Z,94550.93
2019-04-06T06:34:25.158Z,94554.80
2019-04-06T06:37:13.141Z,94550.83
2019-04-06T06:40:00.669Z,94551.06
2019-04-06T06:42:48.634Z,94550.87
2019-04-06T06:45:35.882Z,94548.87
2019-04-06T06:48:23.485Z,94548.69
2019-04-06T06:51:10.958Z,94543.78
2019-04-06T06:53:58.738Z,94556.34
2019-04-06T06:56:46.249Z,94557.06
2019-04-06T06:59:33.995Z,94557.86
2019-04-06T07:02:21.331Z,94550.68
2019-04-06T07:05:08.898Z,94551.49
2019-04-06T07:07:56.525Z,94552.20
2019-04-06T07:10:43.890Z,94544.47
2019-04-06T07:13:35.073Z,94544.72
2019-04-06T07:16:22.828Z,94542.66
2019-04-06T07:19:10.206Z,94534.73
2019-04-06T07:21:58.303Z,94538.39
2019-04-06T07:24:45.982Z,94536.75
2019-04-06T07:27:33.604Z,94528.56
2019-04-06T07:30:20.947Z,94519.17
2019-04-06T07:33:08.128Z,94526.66
2019-04-06T07:35:55.256Z,94525.80
2019-04-06T07:38:43.231Z,94524.12
2019-04-06T07:41:30.798Z,94521.09
2019-04-06T07:44:18.371Z,94515.57
2019-04-06T07:47:05.955Z,94513.33
2019-04-06T07:49:53.591Z,94504.61
2019-04-06T07:52:41.141Z,94498.45
2019-04-06T07:55:28.926Z,94494.58
2019-04-06T07:58:16.702Z,94488.82
2019-04-06T08:01:04.214Z,94485.88
2019-04-06T08:03:51.645Z,94485.09
2019-04-06T08:06:38.907Z,94476.31
2019-04-06T08:09:26.434Z,94475.28
2019-04-06T08:12:14.282Z,94477.51
2019-04-06T08:15:02.206Z,94474.51
2019-04-06T08:17:49.755Z,94472.45
2019-04-06T08:20:37.322Z,94470.89
2019-04-06T08:23:25.272Z,94471.63
2019-04-06T08:26:13.206Z,94469.36
2019-04-06T08:29:02.725Z,94461.41
2019-04-06T08:31:50.398Z,94460.86
2019-04-06T08:34:38.105Z,94462.88
2019-04-06T08:37:26.010Z,94460.77
2019-04-06T08:40:13.375Z,94458.91
2019-04-06T08:43:00.887Z,94463.81
2019-04-06T08:45:48.311Z,94458.02
2019-04-06T08:48:35.709Z,94460.45
2019-04-06T08:51:23.032Z,94464.33
2019-04-06T08:54:10.816Z,94464.08
2019-04-06T08:56:57.961Z,94455.35
2019-04-06T08:59:45.920Z,94454.53
2019-04-06T09:02:33.562Z,94449.37
2019-04-06T09:05:21.186Z,94448.25
2019-04-06T09:08:08.171Z,94452.84
2019-04-06T09:10:55.603Z,94451.43
2019-04-06T09:13:42.851Z,94453.22
2019-04-06T09:16:30.017Z,94449.00
2019-04-06T09:19:17.310Z,94447.67
2019-04-06T09:22:05.062Z,94448.08
2019-04-06T09:24:53.017Z,94440.69
2019-04-06T09:27:40.460Z,94437.08
2019-04-06T09:30:27.968Z,94444.98
2019-04-06T09:33:15.350Z,94438.50
2019-04-06T09:36:03.004Z,94434.02
2019-04-06T09:38:50.840Z,94437.86
2019-04-06T09:41:38.258Z,94439.02
2019-04-06T09:44:36.522Z,94444.62
2019-04-06T09:47:32.238Z,94431.47
2019-04-06T09:50:38.768Z,94430.00
2019-04-06T09:54:05.215Z,94417.58
2019-04-06T09:57:15.164Z,94412.84
2019-04-06T10:00:11.711Z,94415.67
2019-04-06T10:03:18.219Z,94422.44
2019-04-06T10:06:15.659Z,94427.98
2019-04-06T10:09:21.031Z,94424.72
2019-04-06T10:12:36.975Z,94426.17
2019-04-06T10:15:42.512Z,94420.27
2019-04-06T10:18:49.249Z,94419.41
2019-04-06T10:21:54.594Z,94419.38
2019-04-06T10:24:59.866Z,94424.22
2019-04-06T10:28:05.186Z,94420.03
2019-04-06T10:31:12.859Z,94425.66
2019-04-06T10:34:19.719Z,94411.89
2019-04-06T10:37:23.131Z,94413.26
2019-04-06T10:40:29.524Z,94402.27
2019-04-06T10:43:21.916Z,94398.82
2019-04-06T10:46:38.591Z,94400.20
2019-04-06T10:49:43.647Z,94407.35
2019-04-06T10:53:08.405Z,94409.91
2019-04-06T10:56:08.494Z,94396.94
2019-04-06T10:59:12.243Z,94398.87
2019-04-06T11:02:17.648Z,94391.73
2019-04-06T11:05:11.427Z,94382.20
2019-04-06T11:08:27.049Z,94380.14
2019-04-06T11:11:51.852Z,94380.45
2019-04-06T11:14:56.246Z,94372.16
2019-04-06T11:17:53.439Z,94374.08
2019-04-06T11:20:48.604Z,94370.77
2019-04-06T11:23:53.736Z,94375.80
2019-04-06T11:26:53.565Z,94366.08
2019-04-06T11:29:58.519Z,94374.92
2019-04-06T11:33:03.642Z,94365.59
2019-04-06T11:36:04.995Z,94375.09
2019-04-06T11:39:21.135Z,94360.23
2019-04-06T11:42:37.324Z,94358.92
2019-04-06T11:45:49.626Z,94362.24
2019-04-06T11:49:02.833Z,94372.75
2019-04-06T11:52:14.001Z,94369.89
2019-04-06T11:55:09.088Z,94365.89
2019-04-06T11:58:08.155Z,94375.52
2019-04-06T12:01:17.603Z,94368.13
2019-04-06T12:04:30.398Z,94375.17
2019-04-06T12:07:35.720Z,94377.46
2019-04-06T12:10:36.507Z,94375.03
2019-04-06T12:13:33.452Z,94377.20
2019-04-06T12:16:39.187Z,94371.64
2019-04-06T12:19:55.157Z,94377.69
2019-04-06T12:22:52.296Z,94380.34
2019-04-06T12:26:14.351Z,94380.80
2019-04-06T12:29:16.137Z,94384.83
2019-04-06T12:32:15.628Z,94380.83
2019-04-06T12:35:20.509Z,94379.67
2019-04-06T12:38:21.201Z,94381.99
2019-04-06T12:41:23.823Z,94377.16
2019-04-06T12:44:29.693Z,94375.16
2019-04-06T12:47:35.582Z,94383.23
2019-04-06T12:50:47.205Z,94386.80
2019-04-06T12:53:53.843Z,94383.70
2019-04-06T12:57:00.226Z,94386.42
2019-04-06T13:00:03.368Z,94379.86
2019-04-06T13:03:11.006Z,94379.05
2019-04-06T13:06:16.796Z,94382.16
2019-04-06T13:09:34.042Z,94376.66
2019-04-06T13:12:49.444Z,94379.06
2019-04-06T13:15:56.281Z,94365.67
2019-04-06T13:19:06.641Z,94360.55
2019-04-06T13:22:10.228Z,94359.86
2019-04-06T13:25:05.392Z,94366.08
2019-04-06T13:28:18.298Z,94359.75
2019-04-06T13:31:33.946Z,94357.14
2019-04-06T13:34:31.229Z,94349.55
2019-04-06T13:37:33.149Z,94347.67
2019-04-06T13:40:42.748Z,94341.98
2019-04-06T13:43:52.327Z,94346.73
2019-04-06T13:46:48.139Z,94351.50
2019-04-06T13:49:43.308Z,94343.48
2019-04-06T13:52:46.632Z,94340.53
2019-04-06T13:55:51.226Z,94343.53
2019-04-06T13:58:50.957Z,94348.41
2019-04-06T14:01:56.397Z,94340.63
2019-04-06T14:05:01.371Z,94337.05
2019-04-06T14:08:17.051Z,94339.19
2019-04-06T14:11:23.557Z,94333.97
2019-04-06T14:14:45.881Z,94333.58
2019-04-06T14:17:43.788Z,94336.45
2019-04-06T14:20:54.387Z,94328.48
2019-04-06T14:24:01.050Z,94336.69
2019-04-06T14:27:06.472Z,94323.69
2019-04-06T14:30:11.270Z,94330.29
2019-04-06T14:33:06.900Z,94328.32
2019-04-06T14:36:11.890Z,94321.43
2019-04-06T14:39:11.824Z,94318.19
2019-04-06T14:42:30.481Z,94303.41
2019-04-06T14:45:44.344Z,94308.45
2019-04-06T14:48:40.614Z,94303.05
2019-04-06T14:51:40.525Z,94309.66
2019-04-06T14:54:47.024Z,94309.69
2019-04-06T14:57:42.325Z,94304.44
2019-04-06T15:00:39.768Z,94296.47
2019-04-06T15:03:39.162Z,94295.48
2019-04-06T15:06:41.575Z,94291.20
2019-04-06T15:09:37.245Z,94292.96
2019-04-06T15:12:31.517Z,94298.02
2019-04-06T15:15:36.872Z,94290.02
2019-04-06T15:18:49.529Z,94297.97
2019-04-06T15:22:03.459Z,94289.42
2019-04-06T15:25:05.919Z,94289.47
2019-04-06T15:28:11.302Z,94287.66
2019-04-06T15:31:16.338Z,94276.36
2019-04-06T15:34:26.244Z,94278.11
2019-04-06T15:37:32.700Z,94273.41
2019-04-06T15:40:36.162Z,94282.17
2019-04-06T15:43:42.586Z,94276.53
2019-04-06T15:46:52.133Z,94274.02
2019-04-06T15:50:01.455Z,94275.96
2019-04-06T15:52:54.740Z,94284.73
2019-04-06T15:56:03.721Z,94288.66
2019-04-06T15:58:59.743Z,94289.26
2019-04-06T16:02:06.369Z,94304.23
2019-04-06T16:05:16.164Z,94305.41
2019-04-06T16:08:19.567Z,94288.66
2019-04-06T16:11:25.376Z,94290.82
2019-04-06T16:14:44.797Z,94283.21
2019-04-06T16:17:39.196Z,94289.03
2019-04-06T16:20:59.199Z,94287.09
2019-04-06T16:24:02.158Z,94281.45
2019-04-06T16:26:53.871Z,94283.02
2019-04-06T16:29:47.477Z,94283.03
2019-04-06T16:32:50.191Z,94281.29
2019-04-06T16:35:49.046Z,94281.08
2019-04-06T16:38:54.350Z,94282.81
2019-04-06T16:41:57.812Z,94284.37
2019-04-06T16:45:23.031Z,94294.67
2019-04-06T16:48:44.509Z,94294.84
2019-04-06T16:51:44.896Z,94296.80
2019-04-06T16:54:41.656Z,94304.50
2019-04-06T16:57:46.966Z,94307.58
2019-04-06T17:01:06.520Z,94310.22
2019-04-06T17:04:15.939Z,94310.00
2019-04-06T17:07:26.319Z,94309.37
2019-04-06T17:10:20.741Z,94315.82
2019-04-06T17:13:27.077Z,94315.39
2019-04-06T17:16:33.142Z,94322.54
2019-04-06T17:19:34.817Z,94332.36
2019-04-06T17:22:43.037Z,94332.64
2019-04-06T17:25:49.927Z,94325.61
2019-04-06T17:28:54.948Z,94328.82
2019-04-06T17:32:01.347Z,94331.83
2019-04-06T17:35:09.312Z,94333.70
2019-04-06T17:38:02.534Z,94336.93
2019-04-06T17:41:07.661Z,94338.73
2019-04-06T17:44:07.337Z,94336.80
2019-04-06T17:47:18.133Z,94337.27
2019-04-06T17:50:23.482Z,94348.31
2019-04-06T17:53:36.214Z,94347.08
2019-04-06T17:56:41.513Z,94346.25
2019-04-06T17:59:47.047Z,94346.39
2019-04-06T18:02:51.110Z,94344.78
2019-04-06T18:05:56.974Z,94341.34
2019-04-06T18:09:08.904Z,94346.66
2019-04-06T18:12:15.119Z,94348.15
2019-04-06T18:15:03.481Z,94355.72
2019-04-06T18:17:51.000Z,94362.20
2019-04-06T18:20:38.387Z,94351.90
2019-04-06T18:23:25.837Z,94357.11
2019-04-06T18:26:13.204Z,94346.02
2019-04-06T18:29:00.919Z,94348.61
2019-04-06T18:31:58.140Z,94352.58
2019-04-06T18:34:45.836Z,94348.02
2019-04-06T18:37:44.784Z,94350.68
2019-04-06T18:40:32.255Z,94364.83
2019-04-06T18:43:20.731Z,94359.66
2019-04-06T18:46:08.124Z,94365.67
2019-04-06T18:48:55.701Z,94365.50
2019-04-06T18:51:43.400Z,94362.58
2019-04-06T18:54:31.266Z,94363.06
2019-04-06T18:57:18.860Z,94365.95
2019-04-06T19:00:11.580Z,94369.37
2019-04-06T19:03:11.071Z,94361.59
2019-04-06T19:05:49.826Z,94371.98
2019-04-06T19:08:36.581Z,94379.33
2019-04-06T19:11:24.235Z,94374.63
2019-04-06T19:14:12.378Z,94379.34
2019-04-06T19:16:59.740Z,94392.35
2019-04-06T19:19:47.167Z,94382.81
2019-04-06T19:22:34.341Z,94386.97
2019-04-06T19:25:22.128Z,94387.95
2019-04-06T19:28:09.734Z,94382.48
2019-04-06T19:30:57.634Z,94382.14
2019-04-06T19:33:45.634Z,94383.77
2019-04-06T19:36:33.460Z,94390.32
2019-04-06T19:39:20.805Z,94384.17
2019-04-06T19:42:08.469Z,94392.30
2019-04-06T19:44:55.909Z,94386.27
2019-04-06T19:47:43.647Z,94384.55
2019-04-06T19:50:30.875Z,94386.88
2019-04-06T19:53:18.418Z,94385.34
2019-04-06T19:56:05.895Z,94386.97
2019-04-06T19:58:54.020Z,94385.62
2019-04-06T20:02:41.865Z,94385.73
2019-04-06T20:05:29.572Z,94383.50
2019-04-06T20:08:17.463Z,94382.84
2019-04-06T20:11:05.498Z,94387.48
2019-04-06T20:13:53.852Z,94387.20
2019-04-06T20:16:41.955Z,94386.48
2019-04-06T20:19:29.552Z,94387.70
2019-04-06T20:22:18.135Z,94393.04
2019-04-06T20:25:06.295Z,94394.22
2019-04-06T20:27:53.944Z,94401.63
2019-04-06T20:30:42.052Z,94409.02
2019-04-06T20:33:29.542Z,94401.88
2019-04-06T20:36:17.075Z,94404.36
2019-04-06T20:39:25.837Z,94410.42
2019-04-06T20:42:13.468Z,94404.09
2019-04-06T20:45:00.937Z,94405.88
2019-04-06T20:47:48.521Z,94402.71
2019-04-06T20:50:36.417Z,94403.73
2019-04-06T20:53:24.138Z,94404.35
2019-04-06T20:56:11.838Z,94405.13
2019-04-06T20:58:59.903Z,94403.62
2019-04-06T21:01:47.155Z,94406.80
2019-04-06T21:04:37.330Z,94405.73
2019-04-06T21:07:25.056Z,94407.52
2019-04-06T21:10:13.801Z,94402.42
2019-04-06T21:13:01.394Z,94399.20
2019-04-06T21:15:48.930Z,94407.52
2019-04-06T21:18:36.714Z,94404.82
2019-04-06T21:21:24.841Z,94408.03
2019-04-06T21:24:12.549Z,94411.42
2019-04-06T21:27:00.120Z,94412.64
2019-04-06T21:29:47.783Z,94414.81
2019-04-06T21:32:36.091Z,94405.83
2019-04-06T21:35:23.577Z,94408.59
2019-04-06T21:38:14.318Z,94407.92
2019-04-06T21:41:01.569Z,94403.45
2019-04-06T21:43:49.509Z,94411.38
2019-04-06T21:46:38.027Z,94410.10
2019-04-06T21:49:25.766Z,94409.33
2019-04-06T21:52:13.363Z,94409.78
2019-04-06T21:55:01.018Z,94412.92
2019-04-06T21:57:48.575Z,94418.32
2019-04-06T22:00:52.754Z,94405.73
2019-04-06T22:03:40.794Z,94413.93
2019-04-06T22:06:28.325Z,94406.41
2019-04-06T22:09:16.380Z,94414.45
2019-04-06T22:12:04.881Z,94410.30
2019-04-06T22:14:52.942Z,94402.75
2019-04-06T22:17:41.011Z,94412.11
2019-04-06T22:20:28.946Z,94413.02
2019-04-06T22:23:16.760Z,94416.74
2019-04-06T22:26:04.582Z,94417.30
2019-04-06T22:28:52.302Z,94422.30
2019-04-06T22:31:39.835Z,94419.05
2019-04-06T22:34:36.973Z,94416.02
2019-04-06T22:37:16.622Z,94422.23
2019-04-06T22:42:34.251Z,94423.38
2019-04-06T22:45:23.264Z,94423.67
2019-04-06T22:48:10.830Z,94430.69
2019-04-06T22:50:58.711Z,94437.09
2019-04-06T22:53:46.467Z,94437.58
2019-04-06T22:56:33.914Z,94439.06
2019-04-06T22:59:21.196Z,94433.98
2019-04-06T23:02:09.332Z,94441.09
2019-04-06T23:05:06.220Z,94451.44
2019-04-06T23:07:53.658Z,94445.56
2019-04-06T23:10:41.178Z,94450.89
2019-04-06T23:13:29.222Z,94452.05
2019-04-06T23:16:16.992Z,94454.08
2019-04-06T23:19:05.134Z,94454.22
2019-04-06T23:21:53.159Z,94455.16
2019-04-06T23:24:40.949Z,94459.20
2019-04-06T23:27:28.273Z,94457.89
2019-04-06T23:30:16.053Z,94465.50
2019-04-06T23:33:03.964Z,94460.87
2019-04-06T23:35:51.746Z,94453.59
2019-04-06T23:38:39.521Z,94457.28
2019-04-06T23:41:26.775Z,94457.38
2019-04-06T23:44:14.649Z,94463.12
2019-04-06T23:47:03.235Z,94457.63
2019-04-06T23:49:51.755Z,94461.31
2019-04-06T23:52:39.086Z,94458.56
2019-04-06T23:55:27.148Z,94459.66
2019-04-06T23:58:14.473Z,94457.19
